Time;durP1;ratioP1;P1;durP2;ratioP2;P2;SDS_P1;SDS_P2;PMS_P1;PMS_P2;Temp;Humidity;BMP_temperature;BMP_pressure;BME280_temperature;BME280_humidity;BME280_pressure;Samples;Min_cycle;Max_cycle;Signal;HPM_P1;HPM_P2
2022/11/21 00:00:23;;;;;;;38.25;19.45;;;1.70;99.90;;;;;;5064531;28;20040;-65
2022/11/21 00:02:49;;;;;;;39.65;20.00;;;1.70;99.90;;;;;;5026718;28;20049;-67
2022/11/21 00:05:14;;;;;;;34.53;19.30;;;1.70;99.90;;;;;;5050028;28;20131;-65
2022/11/21 00:07:40;;;;;;;38.90;20.17;;;1.70;99.90;;;;;;5057715;28;20032;-65
2022/11/21 00:10:05;;;;;;;41.20;19.88;;;1.80;99.90;;;;;;5056233;28;20110;-65
2022/11/21 00:12:31;;;;;;;37.63;19.92;;;1.70;99.90;;;;;;5052624;28;20036;-66
2022/11/21 00:14:57;;;;;;;36.67;19.40;;;1.70;99.90;;;;;;5047955;28;20127;-67
2022/11/21 00:17:22;;;;;;;38.10;19.90;;;1.70;99.90;;;;;;5049802;28;20029;-65
2022/11/21 00:19:48;;;;;;;36.45;18.35;;;1.70;99.90;;;;;;5047776;28;20091;-65
2022/11/21 00:22:13;;;;;;;40.92;20.40;;;1.70;99.90;;;;;;5037280;28;20056;-65
2022/11/21 00:24:39;;;;;;;36.15;19.17;;;1.70;99.90;;;;;;5053540;28;20055;-66
2022/11/21 00:27:05;;;;;;;37.17;19.83;;;1.70;99.90;;;;;;5030797;28;20051;-65
2022/11/21 00:29:30;;;;;;;38.50;19.70;;;1.80;99.90;;;;;;5050778;28;20029;-65
2022/11/21 00:31:56;;;;;;;38.22;19.70;;;1.80;99.90;;;;;;5059611;28;20040;-65
2022/11/21 00:34:22;;;;;;;37.10;20.00;;;1.80;99.90;;;;;;5033996;28;20037;-65
2022/11/21 00:36:47;;;;;;;36.63;19.52;;;1.80;99.90;;;;;;5045367;28;20041;-67
2022/11/21 00:39:13;;;;;;;40.20;19.65;;;1.80;99.90;;;;;;5056255;28;20776;-65
2022/11/21 00:41:38;;;;;;;37.80;19.35;;;1.80;99.90;;;;;;5046794;28;20543;-65
2022/11/21 00:44:04;;;;;;;35.10;17.85;;;1.80;99.90;;;;;;5035476;28;20037;-66
2022/11/21 00:46:29;;;;;;;38.65;19.90;;;1.90;99.90;;;;;;5048727;28;20445;-65
2022/11/21 00:48:55;;;;;;;33.70;18.92;;;1.90;99.90;;;;;;5046737;28;20553;-66
2022/11/21 00:51:20;;;;;;;38.40;19.83;;;1.80;99.90;;;;;;5067115;28;20033;-67
2022/11/21 00:53:46;;;;;;;38.28;19.73;;;1.80;99.90;;;;;;5049493;28;20032;-66
2022/11/21 00:56:12;;;;;;;36.22;19.20;;;1.80;99.90;;;;;;5052860;28;20041;-66
2022/11/21 00:58:37;;;;;;;35.40;18.52;;;1.80;99.90;;;;;;5065279;28;20052;-65
2022/11/21 01:01:06;;;;;;;33.38;18.23;;;1.80;99.90;;;;;;5038433;28;20037;-65
2022/11/21 01:03:33;;;;;;;34.58;18.67;;;1.80;99.90;;;;;;5045935;28;20037;-65
2022/11/21 01:06:05;;;;;;;35.80;19.25;;;1.80;99.90;;;;;;5050565;28;20041;-66
2022/11/21 01:08:30;;;;;;;32.80;18.38;;;1.70;99.90;;;;;;5064611;28;20501;-66
2022/11/21 01:11:00;;;;;;;40.78;19.55;;;1.80;99.90;;;;;;5043763;28;20044;-65
2022/11/21 01:13:26;;;;;;;38.55;20.58;;;1.80;99.90;;;;;;5046289;28;20036;-62
2022/11/21 01:15:51;;;;;;;40.05;20.00;;;1.70;99.90;;;;;;5058542;28;20086;-67
2022/11/21 01:18:17;;;;;;;37.53;19.45;;;1.70;99.90;;;;;;5038381;28;20110;-63
2022/11/21 01:20:42;;;;;;;36.63;18.65;;;1.70;99.90;;;;;;5047547;28;20102;-62
2022/11/21 01:23:08;;;;;;;31.98;17.33;;;1.70;99.90;;;;;;5067323;28;20098;-63
2022/11/21 01:25:34;;;;;;;35.40;18.77;;;1.80;99.90;;;;;;5056417;28;20449;-63
2022/11/21 01:28:00;;;;;;;31.77;16.52;;;1.80;99.90;;;;;;5041875;28;20037;-62
2022/11/21 01:30:25;;;;;;;37.55;18.73;;;1.80;99.90;;;;;;5046226;28;20056;-63
2022/11/21 01:32:51;;;;;;;35.28;18.20;;;1.70;99.90;;;;;;5061545;28;20053;-65
2022/11/21 01:35:17;;;;;;;36.65;18.95;;;1.70;99.90;;;;;;5048833;28;20501;-62
2022/11/21 01:37:46;;;;;;;33.55;17.73;;;1.70;99.90;;;;;;5056303;28;20078;-63
2022/11/21 01:40:11;;;;;;;33.20;18.50;;;1.70;99.90;;;;;;5056712;28;20463;-63
2022/11/21 01:42:52;;;;;;;34.67;19.38;;;1.80;99.90;;;;;;5031434;28;20116;-65
2022/11/21 01:45:54;;;;;;;34.67;18.97;;;1.80;99.90;;;;;;5039185;28;20067;-63
2022/11/21 01:48:27;;;;;;;35.67;18.52;;;1.80;99.90;;;;;;5050725;28;20041;-62
2022/11/21 01:50:55;;;;;;;38.08;19.52;;;1.80;99.90;;;;;;5042976;28;20037;-62
2022/11/21 01:53:21;;;;;;;35.50;18.88;;;1.70;99.90;;;;;;5042938;28;20040;-62
2022/11/21 01:55:48;;;;;;;34.35;18.75;;;1.70;99.90;;;;;;5050364;28;20119;-63
2022/11/21 01:58:14;;;;;;;39.03;19.23;;;1.70;99.90;;;;;;5045192;28;20041;-62
2022/11/21 02:00:41;;;;;;;37.53;20.00;;;1.70;99.90;;;;;;5045540;28;20040;-62
2022/11/21 02:03:11;;;;;;;39.40;20.17;;;1.70;99.90;;;;;;5037887;28;20033;-63
2022/11/21 02:05:39;;;;;;;35.35;19.92;;;1.70;99.90;;;;;;5045913;28;20028;-62
2022/11/21 02:08:12;;;;;;;37.25;19.80;;;1.70;99.90;;;;;;5044651;28;20461;-63
2022/11/21 02:10:44;;;;;;;36.28;19.30;;;1.70;99.90;;;;;;5049869;28;20048;-68
2022/11/21 02:13:11;;;;;;;39.70;21.50;;;1.70;99.90;;;;;;5053606;28;20047;-63
2022/11/21 02:15:36;;;;;;;42.17;20.27;;;1.70;99.90;;;;;;5049649;28;20038;-63
2022/11/21 02:18:04;;;;;;;37.25;20.50;;;1.70;99.90;;;;;;5051185;28;20033;-63
2022/11/21 02:20:30;;;;;;;39.92;20.60;;;1.70;99.90;;;;;;5055970;28;20139;-63
2022/11/21 02:23:18;;;;;;;38.60;20.17;;;1.70;99.90;;;;;;5062693;28;20673;-63
2022/11/21 02:25:44;;;;;;;37.45;19.77;;;1.80;99.90;;;;;;5046560;28;20041;-63
2022/11/21 02:28:19;;;;;;;38.08;19.27;;;1.70;99.90;;;;;;5046079;28;20041;-62
2022/11/21 02:30:45;;;;;;;37.03;19.33;;;1.80;99.90;;;;;;5069117;28;20032;-65
2022/11/21 02:33:12;;;;;;;35.40;19.45;;;1.80;99.90;;;;;;5034743;28;20507;-67
2022/11/21 02:35:38;;;;;;;37.33;20.05;;;1.80;99.90;;;;;;5053019;28;20044;-63
2022/11/21 02:38:21;;;;;;;36.13;19.58;;;1.80;99.90;;;;;;5049917;28;20520;-62
2022/11/21 02:40:59;;;;;;;36.85;19.20;;;1.70;99.90;;;;;;5032646;28;20462;-62
2022/11/21 02:43:32;;;;;;;35.80;19.00;;;1.80;99.90;;;;;;5045860;28;20086;-63
2022/11/21 02:45:58;;;;;;;37.92;19.70;;;1.80;99.90;;;;;;5062014;28;20132;-64
2022/11/21 02:48:23;;;;;;;38.42;20.67;;;1.80;99.90;;;;;;5048840;28;21171;-63
2022/11/21 02:50:49;;;;;;;37.30;20.35;;;1.80;99.90;;;;;;5048753;28;20071;-63
2022/11/21 02:53:17;;;;;;;37.55;20.40;;;1.80;99.90;;;;;;5037739;28;20036;-63
2022/11/21 02:55:43;;;;;;;37.08;19.33;;;1.80;99.90;;;;;;5048446;28;20069;-62
2022/11/21 02:58:09;;;;;;;38.85;20.23;;;1.70;99.90;;;;;;5043550;28;20064;-62
2022/11/21 03:00:36;;;;;;;38.55;19.75;;;1.80;99.90;;;;;;5054429;28;20116;-62
2022/11/21 03:03:03;;;;;;;39.63;21.38;;;1.80;99.90;;;;;;5038564;28;20041;-63
2022/11/21 03:05:28;;;;;;;39.00;19.77;;;1.70;99.90;;;;;;5058155;28;20112;-63
2022/11/21 03:07:54;;;;;;;40.05;21.00;;;1.70;99.90;;;;;;5045822;28;20551;-64
2022/11/21 03:10:20;;;;;;;36.70;19.75;;;1.70;99.90;;;;;;5054887;28;20048;-63
2022/11/21 03:12:45;;;;;;;37.35;19.13;;;1.70;99.90;;;;;;5065599;28;20041;-62
2022/11/21 03:15:13;;;;;;;39.20;20.75;;;1.70;99.90;;;;;;5014368;28;20053;-66
2022/11/21 03:17:39;;;;;;;38.83;20.52;;;1.70;99.90;;;;;;5054946;28;20039;-62
2022/11/21 03:20:06;;;;;;;39.38;19.17;;;1.70;99.90;;;;;;5055129;28;20045;-63
2022/11/21 03:22:32;;;;;;;35.50;19.20;;;1.60;99.90;;;;;;5051634;28;20029;-62
2022/11/21 03:24:58;;;;;;;41.40;20.10;;;1.60;99.90;;;;;;5047568;28;20452;-64
2022/11/21 03:27:23;;;;;;;37.50;20.13;;;1.60;99.90;;;;;;5057865;28;20079;-62
2022/11/21 03:29:49;;;;;;;37.38;19.92;;;1.60;99.90;;;;;;5061339;28;20044;-62
2022/11/21 03:32:15;;;;;;;39.13;20.08;;;1.50;99.90;;;;;;5053092;28;20044;-63
2022/11/21 03:34:40;;;;;;;39.97;20.73;;;1.50;99.90;;;;;;5054892;28;20402;-63
2022/11/21 03:37:06;;;;;;;40.03;19.98;;;1.50;99.90;;;;;;5068609;28;20047;-62
2022/11/21 03:39:31;;;;;;;34.00;19.77;;;1.40;99.90;;;;;;5032597;28;20714;-63
2022/11/21 03:41:57;;;;;;;34.33;18.70;;;1.40;99.90;;;;;;5026621;28;20052;-63
2022/11/21 03:44:23;;;;;;;39.33;20.77;;;1.30;99.90;;;;;;5064419;28;20033;-63
2022/11/21 03:46:49;;;;;;;31.40;17.05;;;1.30;99.90;;;;;;5042542;28;20504;-64
2022/11/21 03:49:15;;;;;;;37.03;18.92;;;1.30;99.90;;;;;;5044437;28;20387;-64
2022/11/21 03:51:42;;;;;;;33.13;17.67;;;1.20;99.90;;;;;;5044657;28;20032;-63
2022/11/21 03:54:08;;;;;;;31.33;17.20;;;1.20;99.90;;;;;;5062358;28;20045;-63
2022/11/21 03:56:34;;;;;;;33.97;18.00;;;1.10;99.90;;;;;;5029061;28;20064;-62
2022/11/21 03:59:00;;;;;;;36.10;20.25;;;1.00;99.90;;;;;;5039254;28;20395;-62
2022/11/21 04:01:26;;;;;;;37.70;19.98;;;1.00;99.90;;;;;;5057067;28;20459;-62
2022/11/21 04:03:52;;;;;;;37.63;19.08;;;1.00;99.90;;;;;;5052622;28;20566;-63
2022/11/21 04:06:20;;;;;;;38.45;19.30;;;0.90;99.90;;;;;;5040325;28;20110;-62
2022/11/21 04:08:46;;;;;;;37.20;18.65;;;0.90;99.90;;;;;;5053687;28;20036;-62
2022/11/21 04:11:12;;;;;;;34.08;18.27;;;0.80;99.90;;;;;;5067794;28;20037;-63
2022/11/21 04:13:37;;;;;;;39.58;19.85;;;0.70;99.90;;;;;;5024584;28;20490;-64
2022/11/21 04:16:03;;;;;;;40.72;19.83;;;0.70;99.90;;;;;;5048287;28;20044;-62
2022/11/21 04:18:29;;;;;;;33.80;17.83;;;0.60;99.90;;;;;;5064514;28;20083;-62
2022/11/21 04:20:59;;;;;;;33.50;18.17;;;0.60;99.90;;;;;;5045712;28;20087;-62
2022/11/21 04:23:25;;;;;;;38.22;18.92;;;0.50;99.90;;;;;;5045401;28;20037;-62
2022/11/21 04:25:51;;;;;;;38.80;19.30;;;0.50;99.90;;;;;;5059261;28;20047;-64
2022/11/21 04:28:17;;;;;;;34.30;18.60;;;0.40;99.90;;;;;;5034323;28;20076;-63
2022/11/21 04:30:42;;;;;;;38.97;19.30;;;0.40;99.90;;;;;;5044684;28;20090;-62
2022/11/21 04:33:08;;;;;;;31.90;17.77;;;0.40;99.90;;;;;;5055506;28;20127;-65
2022/11/21 04:35:34;;;;;;;35.15;17.77;;;0.30;99.90;;;;;;5065988;28;20048;-65
2022/11/21 04:37:59;;;;;;;31.38;16.20;;;0.30;99.90;;;;;;5045964;28;20040;-63
2022/11/21 04:40:25;;;;;;;31.63;16.70;;;0.30;99.90;;;;;;5046973;28;20041;-62
2022/11/21 04:42:50;;;;;;;34.45;17.50;;;0.20;99.90;;;;;;5052525;28;20041;-62
2022/11/21 04:45:16;;;;;;;35.10;18.45;;;0.20;99.90;;;;;;5066751;28;20056;-62
2022/11/21 04:47:45;;;;;;;33.80;18.52;;;0.10;99.90;;;;;;5029132;28;20063;-63
2022/11/21 04:50:13;;;;;;;35.97;18.50;;;0.10;99.90;;;;;;5048079;28;20040;-63
2022/11/21 04:52:39;;;;;;;42.28;19.15;;;0.10;99.90;;;;;;5047762;28;20036;-63
2022/11/21 04:55:06;;;;;;;40.53;19.88;;;0.10;99.90;;;;;;5039302;28;20036;-63
2022/11/21 04:57:32;;;;;;;39.63;19.92;;;0.10;99.90;;;;;;5053612;28;20090;-63
2022/11/21 04:59:57;;;;;;;31.90;15.80;;;0.00;99.90;;;;;;5059990;28;20040;-63
2022/11/21 05:02:23;;;;;;;33.95;16.65;;;-0.10;99.90;;;;;;5047065;28;20420;-65
2022/11/21 05:04:49;;;;;;;35.00;18.33;;;-0.20;99.90;;;;;;5052657;28;20045;-66
2022/11/21 05:07:15;;;;;;;32.08;17.25;;;-0.20;99.90;;;;;;5055247;28;20067;-65
2022/11/21 05:09:41;;;;;;;37.25;18.45;;;-0.10;99.90;;;;;;5064478;28;20045;-65
2022/11/21 05:14:53;;;;;;;40.78;19.67;;;-0.30;99.90;;;;;;5052864;28;20071;-65
2022/11/21 05:17:19;;;;;;;37.42;17.90;;;-0.30;99.90;;;;;;5058568;28;20037;-66
2022/11/21 05:19:44;;;;;;;38.22;19.05;;;-0.30;99.90;;;;;;5056682;28;20037;-66
2022/11/21 05:22:10;;;;;;;36.95;18.70;;;-0.30;99.90;;;;;;5050920;28;20083;-66
2022/11/21 05:24:35;;;;;;;34.55;18.15;;;-0.30;99.90;;;;;;5056965;28;20033;-66
2022/11/21 05:27:01;;;;;;;34.90;18.40;;;-0.40;99.90;;;;;;5056847;28;20529;-66
2022/11/21 05:29:26;;;;;;;36.25;18.60;;;-0.40;99.90;;;;;;5056942;28;20375;-66
2022/11/21 05:31:52;;;;;;;37.17;17.75;;;-0.40;99.90;;;;;;5056500;28;20045;-66
2022/11/21 05:34:17;;;;;;;31.13;16.70;;;-0.50;99.90;;;;;;5057185;28;20044;-66
2022/11/21 05:36:43;;;;;;;31.65;16.63;;;-0.50;99.90;;;;;;5051334;28;20037;-66
2022/11/21 05:39:08;;;;;;;28.15;14.75;;;-0.60;99.90;;;;;;5052775;28;20084;-66
2022/11/21 05:41:34;;;;;;;29.33;14.38;;;-0.70;99.90;;;;;;5060072;28;20464;-66
2022/11/21 05:43:59;;;;;;;31.80;15.57;;;-0.80;99.90;;;;;;5036313;28;20037;-66
2022/11/21 05:46:25;;;;;;;32.97;17.15;;;-0.80;99.90;;;;;;5048052;28;20041;-66
2022/11/21 05:48:52;;;;;;;35.10;17.48;;;-0.80;99.90;;;;;;5055896;28;20159;-66
2022/11/21 05:51:19;;;;;;;37.10;17.58;;;-0.80;99.90;;;;;;5055942;28;20048;-66
2022/11/21 05:53:45;;;;;;;37.17;17.35;;;-0.80;99.90;;;;;;5062789;28;20044;-66
2022/11/21 05:56:13;;;;;;;34.60;18.23;;;-0.80;99.90;;;;;;5043315;28;20037;-66
2022/11/21 05:58:39;;;;;;;34.47;18.88;;;-0.80;99.90;;;;;;5056644;28;20060;-66
2022/11/21 06:01:06;;;;;;;42.92;20.67;;;-0.90;99.90;;;;;;5052406;28;20415;-66
2022/11/21 06:03:34;;;;;;;42.25;20.88;;;-0.80;99.90;;;;;;5054203;28;20046;-66
2022/11/21 06:06:08;;;;;;;40.92;20.35;;;-0.80;99.90;;;;;;5050739;28;20182;-66
2022/11/21 06:08:42;;;;;;;42.33;21.60;;;-0.90;99.90;;;;;;5046669;28;20075;-67
2022/11/21 06:11:10;;;;;;;44.50;21.25;;;-0.80;99.90;;;;;;5043558;28;20033;-67
2022/11/21 06:13:36;;;;;;;46.13;22.92;;;-0.80;99.90;;;;;;5038193;28;20040;-67
2022/11/21 06:16:09;;;;;;;45.38;21.38;;;-0.80;99.90;;;;;;5045636;28;20037;-67
2022/11/21 06:18:37;;;;;;;44.50;21.55;;;-0.80;99.90;;;;;;5048294;28;20554;-66
2022/11/21 06:21:04;;;;;;;42.45;21.35;;;-0.80;99.90;;;;;;5047713;28;20037;-67
2022/11/21 06:23:31;;;;;;;45.53;21.58;;;-0.80;99.90;;;;;;5050227;28;20513;-67
2022/11/21 06:25:57;;;;;;;43.05;21.77;;;-0.80;99.90;;;;;;5053367;28;20071;-67
2022/11/21 06:28:24;;;;;;;43.30;21.30;;;-0.90;99.90;;;;;;5061414;28;20044;-65
2022/11/21 06:30:50;;;;;;;39.65;19.35;;;-0.90;99.90;;;;;;5045892;28;20498;-67
2022/11/21 06:33:17;;;;;;;37.10;18.65;;;-1.00;99.90;;;;;;5055014;28;20123;-66
2022/11/21 06:35:43;;;;;;;37.38;18.42;;;-1.00;99.90;;;;;;5042537;28;20467;-67
2022/11/21 06:38:08;;;;;;;41.00;20.73;;;-1.10;99.90;;;;;;5048071;28;20077;-65
2022/11/21 06:40:34;;;;;;;38.55;19.80;;;-1.20;99.90;;;;;;5067300;28;20040;-65
2022/11/21 06:43:00;;;;;;;41.42;20.00;;;-1.20;99.90;;;;;;5045088;28;20072;-65
2022/11/21 06:45:26;;;;;;;40.97;20.90;;;-1.20;99.90;;;;;;5036638;28;20493;-65
2022/11/21 06:47:51;;;;;;;46.03;21.77;;;-1.20;99.90;;;;;;5061098;28;20049;-65
2022/11/21 06:50:17;;;;;;;45.25;21.65;;;-1.20;99.90;;;;;;5057088;28;20091;-65
2022/11/21 06:52:43;;;;;;;42.92;20.73;;;-1.20;99.90;;;;;;5045289;28;20536;-65
2022/11/21 06:55:09;;;;;;;41.88;20.20;;;-1.20;99.90;;;;;;5045003;28;20049;-63
2022/11/21 06:57:35;;;;;;;41.20;19.85;;;-1.20;99.90;;;;;;5045710;28;20037;-63
2022/11/21 07:00:01;;;;;;;44.08;20.35;;;-1.20;99.90;;;;;;5044910;28;20124;-62
2022/11/21 07:02:26;;;;;;;45.28;22.77;;;-1.20;99.90;;;;;;5065294;28;20064;-63
2022/11/21 07:04:52;;;;;;;45.00;21.38;;;-1.20;99.90;;;;;;5056718;28;20064;-63
2022/11/21 07:07:18;;;;;;;47.65;22.50;;;-1.10;99.90;;;;;;5032118;28;20044;-63
2022/11/21 07:09:46;;;;;;;45.40;21.42;;;-1.10;99.90;;;;;;5048580;28;20029;-63
2022/11/21 07:14:55;;;;;;;48.30;23.65;;;-1.00;99.90;;;;;;5048646;28;20094;-63
2022/11/21 07:17:21;;;;;;;49.50;22.58;;;-1.00;99.90;;;;;;5038677;28;20038;-66
2022/11/21 07:19:46;;;;;;;49.30;23.83;;;-0.90;99.90;;;;;;5044414;28;20045;-66
2022/11/21 07:22:12;;;;;;;49.08;23.70;;;-0.80;99.90;;;;;;5042438;28;20442;-66
2022/11/21 07:24:37;;;;;;;46.80;23.27;;;-0.80;99.90;;;;;;5040936;28;20044;-65
2022/11/21 07:27:03;;;;;;;46.95;22.98;;;-0.90;99.90;;;;;;5031514;28;20042;-65
2022/11/21 07:29:28;;;;;;;52.45;24.25;;;-0.80;99.90;;;;;;5047385;28;20049;-65
2022/11/21 07:31:54;;;;;;;52.63;23.50;;;-0.80;99.90;;;;;;5052342;28;20037;-65
2022/11/21 07:34:19;;;;;;;52.38;23.67;;;-0.80;99.90;;;;;;5044805;28;20034;-65
2022/11/21 07:36:45;;;;;;;50.17;23.20;;;-0.80;99.90;;;;;;5041335;28;20395;-65
2022/11/21 07:39:10;;;;;;;51.58;24.77;;;-0.70;99.90;;;;;;5051839;28;20411;-65
2022/11/21 07:41:36;;;;;;;53.25;25.33;;;-0.70;99.90;;;;;;5039963;28;20392;-65
2022/11/21 07:44:01;;;;;;;51.50;24.23;;;-0.60;99.90;;;;;;5050712;28;20490;-65
2022/11/21 07:46:27;;;;;;;58.60;26.45;;;-0.60;99.90;;;;;;5052156;28;20044;-65
2022/11/21 07:48:52;;;;;;;49.00;23.42;;;-0.50;99.90;;;;;;5052667;28;20103;-65
2022/11/21 07:51:18;;;;;;;56.35;25.60;;;-0.50;99.90;;;;;;5037623;28;20418;-65
2022/11/21 07:53:44;;;;;;;59.10;26.20;;;-0.40;99.90;;;;;;5050892;28;20036;-65
2022/11/21 07:56:09;;;;;;;55.88;24.35;;;-0.40;99.90;;;;;;5052377;28;20051;-65
2022/11/21 07:58:35;;;;;;;53.28;25.15;;;-0.40;99.90;;;;;;5036629;28;20045;-67
2022/11/21 08:01:05;;;;;;;58.35;25.02;;;-0.40;99.90;;;;;;5051554;28;20402;-66
2022/11/21 08:03:31;;;;;;;60.45;25.88;;;-0.30;99.90;;;;;;5052032;28;20037;-67
2022/11/21 08:06:01;;;;;;;52.58;24.38;;;-0.30;99.90;;;;;;5052084;28;20646;-67
2022/11/21 08:08:27;;;;;;;52.20;24.48;;;-0.30;99.90;;;;;;5043579;28;20052;-67
2022/11/21 08:10:52;;;;;;;55.00;24.42;;;-0.20;99.90;;;;;;5047092;28;20041;-65
2022/11/21 08:13:18;;;;;;;56.25;24.50;;;-0.20;99.90;;;;;;5049124;28;20041;-63
2022/11/21 08:15:43;;;;;;;56.58;24.60;;;-0.20;99.90;;;;;;5042052;28;20033;-67
2022/11/21 08:18:13;;;;;;;53.35;23.52;;;-0.10;99.90;;;;;;5047734;28;20199;-67
2022/11/21 08:20:39;;;;;;;46.63;21.42;;;0.00;99.90;;;;;;5031748;28;20060;-67
2022/11/21 08:23:05;;;;;;;47.28;21.20;;;0.10;99.90;;;;;;5030102;28;20492;-66
2022/11/21 08:25:32;;;;;;;53.22;21.77;;;0.20;99.90;;;;;;5046894;28;20039;-66
2022/11/21 08:27:58;;;;;;;62.13;20.63;;;0.20;99.90;;;;;;5051630;28;20059;-66
2022/11/21 08:30:24;;;;;;;63.83;21.88;;;0.30;99.90;;;;;;5046895;28;20233;-66
2022/11/21 08:32:50;;;;;;;93.32;21.38;;;0.40;99.90;;;;;;5043084;28;20082;-65
2022/11/21 08:35:16;;;;;;;92.47;24.48;;;0.50;99.90;;;;;;5051508;28;20041;-65
2022/11/21 08:37:41;;;;;;;92.28;20.60;;;0.50;99.90;;;;;;5068009;22;20513;-65
2022/11/21 08:40:08;;;;;;;88.00;21.08;;;0.60;99.90;;;;;;5062603;28;20043;-66
2022/11/21 08:42:33;;;;;;;144.38;22.35;;;0.60;99.90;;;;;;5056881;28;20033;-66
2022/11/21 08:44:59;;;;;;;93.25;22.00;;;0.60;99.90;;;;;;5071171;28;20459;-66
2022/11/21 08:47:25;;;;;;;104.22;21.92;;;0.60;99.90;;;;;;5065051;28;20082;-66
2022/11/21 08:49:50;;;;;;;98.53;21.42;;;0.60;99.90;;;;;;5062951;28;20619;-66
2022/11/21 08:52:16;;;;;;;103.72;22.85;;;0.60;99.90;;;;;;5047822;28;20048;-65
2022/11/21 08:54:43;;;;;;;148.68;22.75;;;0.60;99.90;;;;;;5070985;28;20414;-65
2022/11/21 08:57:09;;;;;;;107.25;21.88;;;0.60;99.90;;;;;;5064338;28;20174;-65
2022/11/21 08:59:35;;;;;;;135.60;23.95;;;0.80;99.90;;;;;;5062108;28;20116;-65
2022/11/21 09:02:01;;;;;;;151.93;24.42;;;0.80;99.90;;;;;;5070974;28;20066;-65
2022/11/21 09:04:26;;;;;;;148.32;21.55;;;0.90;99.90;;;;;;5048875;28;20052;-66
2022/11/21 09:06:52;;;;;;;209.68;26.65;;;0.90;99.90;;;;;;5062534;28;20036;-66
2022/11/21 09:09:17;;;;;;;105.20;20.92;;;1.00;99.90;;;;;;5068021;28;20032;-66
2022/11/21 09:11:43;;;;;;;96.85;21.67;;;1.00;99.90;;;;;;5070855;28;20113;-66
2022/11/21 09:19:37;;;;;;;130.10;22.77;;;1.10;99.90;;;;;;5062740;28;20162;-63
2022/11/21 09:22:03;;;;;;;94.60;22.48;;;1.10;99.90;;;;;;5058627;28;20529;-63
2022/11/21 09:24:28;;;;;;;134.82;22.40;;;1.20;99.90;;;;;;5069716;28;20120;-62
2022/11/21 09:26:54;;;;;;;143.25;21.75;;;1.20;99.90;;;;;;5070771;28;20046;-62
2022/11/21 09:29:19;;;;;;;202.88;23.83;;;1.30;99.90;;;;;;5063011;28;20036;-64
2022/11/21 09:31:45;;;;;;;135.20;21.00;;;1.40;99.90;;;;;;5058214;28;20032;-62
2022/11/21 09:34:11;;;;;;;85.47;20.10;;;1.40;99.90;;;;;;5070783;28;20043;-62
2022/11/21 09:36:36;;;;;;;135.63;23.17;;;1.40;99.90;;;;;;5068500;28;20435;-66
2022/11/21 09:39:03;;;;;;;137.27;22.88;;;1.50;99.90;;;;;;5054290;28;20452;-64
2022/11/21 09:42:18;;;;;;;103.15;22.02;;;1.50;99.90;;;;;;5064011;28;20123;-62
2022/11/21 09:45:04;;;;;;;71.53;18.48;;;1.50;99.90;;;;;;4995761;28;20129;-62
2022/11/21 09:47:32;;;;;;;75.78;19.65;;;1.60;99.90;;;;;;4987908;28;20047;-62
2022/11/21 09:50:45;;;;;;;60.65;19.15;;;1.70;99.90;;;;;;5040794;28;20048;-61
2022/11/21 09:53:16;;;;;;;58.97;19.42;;;1.80;99.90;;;;;;5067945;28;20051;-62
2022/11/21 09:55:55;;;;;;;54.67;20.27;;;1.80;99.90;;;;;;5065539;28;20055;-62
2022/11/21 09:58:25;;;;;;;82.43;21.35;;;1.90;99.90;;;;;;5071724;28;20041;-63
2022/11/21 10:00:52;;;;;;;78.80;20.77;;;1.90;99.90;;;;;;5074060;28;20048;-63
2022/11/21 10:03:21;;;;;;;70.45;22.17;;;2.00;99.90;;;;;;5062700;28;20043;-62
2022/11/21 10:05:52;;;;;;;73.32;21.80;;;2.00;99.90;;;;;;5073561;28;20040;-62
2022/11/21 10:08:59;;;;;;;70.35;23.30;;;2.00;99.90;;;;;;5056336;28;20123;-62
2022/11/21 10:15:22;;;;;;;74.43;20.30;;;2.10;99.90;;;;;;5055976;28;20064;-62
2022/11/21 10:18:26;;;;;;;74.45;19.88;;;2.10;99.90;;;;;;5071233;28;20044;-62
2022/11/21 10:21:16;;;;;;;71.88;19.67;;;2.10;99.90;;;;;;5058927;28;20056;-62
2022/11/21 10:24:01;;;;;;;64.90;20.98;;;2.10;99.90;;;;;;5066185;28;20047;-62
2022/11/21 10:26:27;;;;;;;58.03;20.55;;;2.10;99.90;;;;;;5073567;28;20123;-63
2022/11/21 10:29:17;;;;;;;67.05;22.17;;;2.20;99.90;;;;;;5036387;28;20181;-62
2022/11/21 10:31:44;;;;;;;65.20;21.67;;;2.20;99.90;;;;;;5068692;28;20434;-62
2022/11/21 10:34:14;;;;;;;49.50;21.08;;;2.30;99.90;;;;;;5073551;28;20040;-64
2022/11/21 10:36:43;;;;;;;47.40;20.85;;;2.30;99.90;;;;;;5073585;28;20041;-62
2022/11/21 10:39:32;;;;;;;51.03;21.80;;;2.50;99.90;;;;;;5055793;28;20461;-62
2022/11/21 10:42:11;;;;;;;45.13;19.52;;;2.50;99.90;;;;;;5058098;28;20041;-63
2022/11/21 10:47:27;;;;;;;57.47;21.77;;;2.70;99.90;;;;;;5070740;28;20052;-63
2022/11/21 10:50:08;;;;;;;52.15;21.95;;;2.80;99.90;;;;;;5073759;28;20098;-65
2022/11/21 10:52:49;;;;;;;50.35;21.77;;;2.90;99.90;;;;;;5066390;28;20040;-65
2022/11/21 10:55:16;;;;;;;52.67;23.63;;;2.90;99.90;;;;;;5065000;28;20068;-65
2022/11/21 10:57:47;;;;;;;53.38;23.30;;;2.90;99.90;;;;;;5073065;28;20033;-65
2022/11/21 11:00:12;;;;;;;53.45;24.60;;;3.00;99.90;;;;;;5069846;28;20044;-65
2022/11/21 11:02:39;;;;;;;54.55;25.02;;;3.00;99.90;;;;;;5063950;28;20090;-65
2022/11/21 11:05:20;;;;;;;52.20;24.40;;;3.10;99.90;;;;;;5057731;28;20037;-65
2022/11/21 11:08:01;;;;;;;49.47;23.55;;;3.10;99.90;;;;;;5055197;28;20044;-66
2022/11/21 11:10:27;;;;;;;44.63;20.98;;;3.10;99.90;;;;;;5071717;28;20048;-64
2022/11/21 11:15:53;;;;;;;43.58;20.48;;;3.10;99.90;;;;;;5063893;28;20075;-65
2022/11/21 11:18:21;;;;;;;47.97;21.08;;;3.10;99.90;;;;;;5050533;28;20132;-65
2022/11/21 11:20:47;;;;;;;46.55;21.58;;;3.00;99.90;;;;;;5068046;28;20036;-63
2022/11/21 11:23:18;;;;;;;46.05;21.05;;;3.00;99.90;;;;;;5072919;28;20386;-64
2022/11/21 11:25:50;;;;;;;50.00;21.95;;;3.10;99.90;;;;;;5065727;28;20036;-64
2022/11/21 11:28:18;;;;;;;53.80;21.90;;;3.20;99.90;;;;;;5061529;28;20125;-64
2022/11/21 11:30:44;;;;;;;47.00;21.77;;;3.40;99.90;;;;;;5072083;28;20076;-64
2022/11/21 11:33:37;;;;;;;48.50;21.88;;;3.50;99.90;;;;;;5066118;28;20029;-64
2022/11/21 11:36:36;;;;;;;49.58;22.15;;;3.50;99.90;;;;;;5069636;28;20460;-65
2022/11/21 11:39:12;;;;;;;49.30;21.10;;;3.60;99.90;;;;;;5057973;28;20050;-65
2022/11/21 11:48:09;;;;;;;42.83;21.30;;;3.80;99.90;;;;;;5067290;28;20550;-65
2022/11/21 11:50:43;;;;;;;40.53;18.75;;;3.80;99.90;;;;;;5062166;28;20119;-64
2022/11/21 11:53:26;;;;;;;38.75;19.10;;;3.90;99.90;;;;;;5070729;28;20094;-64
2022/11/21 11:56:03;;;;;;;38.97;19.15;;;4.10;99.90;;;;;;5065899;28;20037;-64
2022/11/21 11:58:35;;;;;;;36.25;17.42;;;4.10;99.90;;;;;;5067732;28;20032;-64
2022/11/21 12:01:19;;;;;;;35.58;17.85;;;4.20;99.90;;;;;;5069898;28;20040;-64
2022/11/21 12:04:05;;;;;;;38.45;19.63;;;4.40;99.90;;;;;;5071090;28;20040;-65
2022/11/21 12:06:36;;;;;;;31.80;15.18;;;4.50;99.90;;;;;;5070902;28;20048;-65
2022/11/21 12:09:13;;;;;;;29.88;16.08;;;4.60;99.90;;;;;;5064159;28;20041;-64
2022/11/21 12:12:05;;;;;;;26.42;14.35;;;4.70;99.90;;;;;;5062882;28;20033;-65
2022/11/21 12:17:32;;;;;;;23.77;13.45;;;4.90;99.90;;;;;;5065158;28;19916;-65
2022/11/21 12:20:00;;;;;;;27.45;14.57;;;5.00;99.90;;;;;;5071602;28;20083;-65
2022/11/21 12:22:25;;;;;;;26.42;14.20;;;5.00;99.90;;;;;;5064537;28;20128;-65
2022/11/21 12:24:51;;;;;;;27.85;14.00;;;5.10;99.90;;;;;;5057332;28;20167;-65
2022/11/21 12:27:28;;;;;;;27.63;14.85;;;5.20;99.90;;;;;;5061791;28;20173;-65
2022/11/21 12:30:05;;;;;;;27.40;13.85;;;5.20;99.90;;;;;;5071466;28;20394;-64
2022/11/21 12:32:59;;;;;;;26.35;14.45;;;5.20;99.90;;;;;;5063411;28;20052;-65
2022/11/21 12:36:03;;;;;;;24.95;13.65;;;5.20;99.90;;;;;;5064852;28;20445;-64
2022/11/21 12:38:45;;;;;;;25.25;14.10;;;5.10;99.90;;;;;;5069048;28;20391;-65
2022/11/21 12:44:18;;;;;;;24.67;13.57;;;5.10;99.90;;;;;;5066914;28;20051;-65
2022/11/21 12:46:50;;;;;;;28.88;14.65;;;5.00;99.90;;;;;;5071720;28;20475;-65
2022/11/21 12:55:27;;;;;;;28.95;15.60;;;5.10;99.90;;;;;;5067204;28;20406;-65
2022/11/21 12:58:05;;;;;;;29.77;15.98;;;5.20;99.90;;;;;;5059808;28;20124;-65
2022/11/21 13:00:44;;;;;;;27.70;15.73;;;5.30;99.90;;;;;;5066852;28;20037;-65
2022/11/21 13:03:22;;;;;;;27.35;15.15;;;5.30;99.90;;;;;;5060172;28;20055;-64
2022/11/21 13:05:51;;;;;;;26.42;14.68;;;5.30;99.90;;;;;;5063915;28;20146;-65
2022/11/21 13:08:23;;;;;;;31.27;16.75;;;5.20;99.90;;;;;;5071285;28;20044;-65
2022/11/21 13:13:50;;;;;;;28.90;15.63;;;5.00;99.90;;;;;;5061128;28;20529;-65
2022/11/21 13:16:36;;;;;;;29.17;15.93;;;5.00;99.90;;;;;;5063137;28;20045;-65
2022/11/21 13:19:14;;;;;;;27.85;14.80;;;4.90;99.90;;;;;;5070200;28;20358;-65
2022/11/21 13:21:42;;;;;;;32.40;16.83;;;4.80;99.90;;;;;;5069402;28;20406;-65
2022/11/21 13:24:08;;;;;;;32.05;17.40;;;4.80;99.90;;;;;;5057354;28;20116;-65